createdAt,value
2018-07-25T00:21:30.997Z,11.87
2018-07-25T00:26:35.654Z,12.60
2018-07-25T00:31:39.794Z,12.30
2018-07-25T00:36:43.678Z,11.30
2018-07-25T00:41:48.557Z,10.85
2018-07-25T00:46:52.443Z,11.60
2018-07-25T00:51:57.626Z,11.40
2018-07-25T00:57:02.832Z,11.78
2018-07-25T01:02:07.898Z,11.67
2018-07-25T01:07:12.365Z,11.97
2018-07-25T01:12:16.574Z,10.98
2018-07-25T01:17:20.658Z,11.30
2018-07-25T01:22:24.335Z,11.15
2018-07-25T01:27:28.214Z,11.40
2018-07-25T01:32:33.056Z,12.70
2018-07-25T01:37:37.233Z,11.35
2018-07-25T01:42:43.368Z,11.70
2018-07-25T01:47:47.449Z,13.67
2018-07-25T01:53:11.421Z,13.17
2018-07-25T01:58:29.796Z,13.37
2018-07-25T02:03:34.054Z,13.05
2018-07-25T02:08:38.081Z,13.48
2018-07-25T02:13:42.779Z,12.73
2018-07-25T02:18:47.047Z,12.43
2018-07-25T02:23:51.517Z,13.50
2018-07-25T02:29:08.824Z,13.20
2018-07-25T02:34:20.202Z,13.00
2018-07-25T02:39:24.423Z,13.50
2018-07-25T02:44:28.374Z,13.10
2018-07-25T02:49:32.972Z,12.40
2018-07-25T02:54:38.337Z,12.80
2018-07-25T02:59:42.513Z,14.15
2018-07-25T03:04:47.254Z,13.50
2018-07-25T03:09:51.470Z,13.40
2018-07-25T03:14:55.949Z,14.28
2018-07-25T03:19:59.827Z,15.18
2018-07-25T03:25:03.896Z,14.70
2018-07-25T03:30:08.650Z,13.55
2018-07-25T03:35:12.461Z,14.95
2018-07-25T03:40:16.922Z,14.65
2018-07-25T03:45:21.383Z,15.10
2018-07-25T03:50:26.702Z,16.80
2018-07-25T03:55:30.674Z,15.40
2018-07-25T04:00:35.476Z,14.80
2018-07-25T04:05:39.350Z,15.40
2018-07-25T04:10:47.323Z,15.48
2018-07-25T04:15:52.203Z,13.13
2018-07-25T04:20:56.227Z,15.20
2018-07-25T04:26:01.014Z,15.38
2018-07-25T04:31:05.267Z,15.28
2018-07-25T04:36:09.298Z,14.43
2018-07-25T04:41:13.381Z,14.05
2018-07-25T04:46:18.102Z,17.02
2018-07-25T04:51:22.787Z,17.15
2018-07-25T04:56:38.130Z,15.53
2018-07-25T05:01:42.082Z,16.40
2018-07-25T05:06:46.965Z,15.10
2018-07-25T05:11:50.625Z,17.73
2018-07-25T05:16:54.280Z,21.25
2018-07-25T05:21:57.776Z,16.73
2018-07-25T05:27:01.407Z,16.12
2018-07-25T05:32:12.027Z,15.90
2018-07-25T05:37:17.468Z,13.78
2018-07-25T05:42:21.054Z,19.30
2018-07-25T05:47:24.655Z,16.45
2018-07-25T05:52:28.679Z,16.30
2018-07-25T05:57:32.643Z,15.90
2018-07-25T06:02:36.809Z,14.40
2018-07-25T06:07:40.676Z,14.80
2018-07-25T06:12:44.455Z,13.90
2018-07-25T06:17:48.003Z,14.00
2018-07-25T06:22:51.911Z,12.50
2018-07-25T06:27:57.460Z,11.65
2018-07-25T06:33:04.808Z,11.40
2018-07-25T06:38:08.332Z,11.50
2018-07-25T06:43:11.974Z,11.83
2018-07-25T06:48:15.870Z,10.60
2018-07-25T06:53:19.398Z,10.82
2018-07-25T06:58:28.923Z,9.30
2018-07-25T07:03:32.428Z,9.60
2018-07-25T07:08:35.957Z,8.50
2018-07-25T07:13:39.467Z,8.30
2018-07-25T07:18:43.797Z,8.53
2018-07-25T07:23:47.372Z,8.60
2018-07-25T07:28:50.926Z,7.90
2018-07-25T07:34:13.001Z,9.07
2018-07-25T07:39:17.029Z,8.60
2018-07-25T07:44:21.160Z,9.20
2018-07-25T07:49:24.774Z,8.68
2018-07-25T07:54:28.170Z,8.78
2018-07-25T07:59:31.779Z,8.25
2018-07-25T08:04:35.402Z,8.60
2018-07-25T08:09:40.998Z,9.00
2018-07-25T08:14:44.560Z,8.47
2018-07-25T08:19:48.047Z,7.60
2018-07-25T08:24:51.417Z,7.80
2018-07-25T08:29:54.953Z,7.40
2018-07-25T08:34:58.357Z,7.00
2018-07-25T08:40:01.772Z,6.60
2018-07-25T08:45:06.187Z,6.10
2018-07-25T08:50:10.267Z,6.85
2018-07-25T08:55:15.727Z,6.70
2018-07-25T09:00:19.330Z,6.60
2018-07-25T09:05:23.099Z,6.47
2018-07-25T09:10:26.613Z,6.30
2018-07-25T09:15:30.156Z,6.55
2018-07-25T09:20:37.256Z,5.65
2018-07-25T09:31:09.065Z,6.13
2018-07-25T09:36:12.651Z,5.20
2018-07-25T09:41:26.459Z,5.00
2018-07-25T09:52:04.659Z,4.75
2018-07-25T09:57:09.313Z,4.70
2018-07-25T10:02:13.876Z,4.70
2018-07-25T10:07:22.894Z,4.90
2018-07-25T10:18:04.401Z,4.47
2018-07-25T10:23:11.227Z,4.55
2018-07-25T10:28:14.721Z,4.50
2018-07-25T10:33:18.247Z,4.03
2018-07-25T10:38:21.890Z,4.35
2018-07-25T10:43:25.505Z,4.30
2018-07-25T10:48:29.125Z,4.60
2018-07-25T10:53:33.757Z,3.97
2018-07-25T10:58:38.129Z,4.15
2018-07-25T11:04:05.171Z,4.40
2018-07-25T11:09:32.121Z,4.10
2018-07-25T11:14:36.381Z,3.65
2018-07-25T11:19:46.114Z,3.40
2018-07-25T11:24:53.796Z,3.70
2018-07-25T12:03:07.323Z,2.80
2018-07-25T12:08:11.886Z,2.67
2018-07-25T12:30:09.822Z,2.90
2018-07-25T12:35:13.725Z,3.10
2018-07-25T12:40:17.715Z,2.90
2018-07-25T12:45:21.395Z,3.30
2018-07-25T12:50:24.935Z,3.87
2018-07-25T12:55:41.174Z,3.20
2018-07-25T13:00:44.873Z,3.20
2018-07-25T13:05:48.664Z,2.72
2018-07-25T13:10:52.313Z,2.40
2018-07-25T13:15:56.089Z,2.45
2018-07-25T13:21:00.780Z,2.70
2018-07-25T13:26:04.422Z,2.70
2018-07-25T13:36:36.615Z,2.90
2018-07-25T13:41:42.226Z,2.80
2018-07-25T13:46:46.198Z,3.10
2018-07-25T13:51:49.720Z,3.25
2018-07-25T13:56:53.481Z,3.00
2018-07-25T14:01:57.079Z,3.10
2018-07-25T14:07:00.814Z,3.20
2018-07-25T14:12:04.731Z,2.90
2018-07-25T14:17:08.254Z,3.10
2018-07-25T14:22:11.960Z,2.77
2018-07-25T14:27:15.565Z,2.60
2018-07-25T14:32:19.101Z,2.80
2018-07-25T14:37:22.810Z,2.70
2018-07-25T14:42:26.598Z,3.70
2018-07-25T14:47:30.237Z,2.92
2018-07-25T14:52:34.097Z,2.90
2018-07-25T14:57:39.803Z,3.53
2018-07-25T15:02:43.652Z,3.60
2018-07-25T15:07:54.268Z,3.20
2018-07-25T15:12:59.233Z,3.23
2018-07-25T15:18:03.003Z,3.00
2018-07-25T15:23:06.730Z,3.22
2018-07-25T15:28:17.815Z,3.70
2018-07-25T15:33:28.570Z,3.10
2018-07-25T15:38:34.406Z,3.00
2018-07-25T15:43:37.915Z,3.30
2018-07-25T15:48:41.601Z,2.90
2018-07-25T15:53:45.409Z,2.90
2018-07-25T15:58:49.003Z,3.00
2018-07-25T16:03:54.012Z,2.70
2018-07-25T16:08:58.691Z,2.70
2018-07-25T16:14:02.488Z,2.50
2018-07-25T16:19:06.351Z,2.67
2018-07-25T16:24:10.143Z,2.80
2018-07-25T16:29:13.872Z,3.67
2018-07-25T16:34:17.635Z,2.80
2018-07-25T16:39:21.957Z,3.07
2018-07-25T16:44:25.585Z,2.90
2018-07-25T16:49:29.277Z,2.90
2018-07-25T16:54:33.424Z,2.80
2018-07-25T16:59:39.473Z,3.10
2018-07-25T17:10:14.332Z,2.70
2018-07-25T17:15:22.269Z,3.83
2018-07-25T17:20:26.045Z,2.93
2018-07-25T17:25:29.738Z,2.70
2018-07-25T17:30:34.277Z,2.10
2018-07-25T17:35:38.005Z,3.13
2018-07-25T17:40:41.632Z,3.27
2018-07-25T17:45:56.222Z,2.60
2018-07-25T17:50:59.871Z,2.40
2018-07-25T17:56:03.389Z,2.30
2018-07-25T18:01:06.955Z,2.60
2018-07-25T18:06:11.032Z,3.50
2018-07-25T18:11:14.530Z,3.90
2018-07-25T18:16:19.750Z,4.62
2018-07-25T18:21:23.585Z,4.15
2018-07-25T18:26:27.136Z,4.80
2018-07-25T18:31:30.594Z,4.60
2018-07-25T18:36:35.308Z,5.10
2018-07-25T18:41:39.197Z,4.60
2018-07-25T18:46:45.140Z,4.50
2018-07-25T18:51:49.200Z,4.30
2018-07-25T18:56:52.812Z,4.40
2018-07-25T19:01:56.345Z,3.35
2018-07-25T19:06:59.749Z,3.90
2018-07-25T19:12:03.412Z,3.70
2018-07-25T19:17:07.004Z,3.50
2018-07-25T19:22:10.467Z,4.70
2018-07-25T19:27:14.042Z,3.52
2018-07-25T19:32:17.540Z,4.10
2018-07-25T19:37:21.040Z,3.77
2018-07-25T19:42:24.503Z,3.20
2018-07-25T19:47:28.035Z,3.65
2018-07-25T19:52:31.495Z,3.60
2018-07-25T19:57:35.017Z,3.50
2018-07-25T20:02:38.537Z,4.22
2018-07-25T20:07:41.986Z,3.70
2018-07-25T20:12:45.594Z,3.90
2018-07-25T20:17:49.394Z,3.50
2018-07-25T20:22:52.929Z,3.80
2018-07-25T20:27:56.636Z,3.60
2018-07-25T20:33:00.202Z,3.30
2018-07-25T20:38:03.831Z,3.98
2018-07-25T20:43:31.895Z,3.50
2018-07-25T20:48:46.809Z,3.62
2018-07-25T20:59:34.168Z,4.10
2018-07-25T21:04:37.809Z,3.70
2018-07-25T21:09:41.299Z,3.60
2018-07-25T21:14:44.778Z,3.50
2018-07-25T21:19:48.367Z,3.93
2018-07-25T21:24:51.832Z,3.62
2018-07-25T21:29:55.249Z,3.90
2018-07-25T21:35:10.406Z,3.60
2018-07-25T21:56:57.717Z,4.10
2018-07-25T22:02:08.910Z,4.10
2018-07-25T22:07:16.798Z,4.05
2018-07-25T23:12:24.144Z,4.80
2018-07-25T23:17:27.647Z,4.70
2018-07-25T23:27:38.671Z,4.72
2018-07-25T23:32:43.814Z,4.53
2018-07-25T23:37:47.740Z,4.60
2018-07-25T23:42:51.175Z,4.65
2018-07-25T23:47:54.703Z,4.60
2018-07-25T23:53:08.138Z,4.00
2018-07-25T23:58:12.035Z,4.15
